Edgar B Speer — WQZ9670 — position and weather

sailwx.info

Track history (hours):
 
Tides and Currents Weather Stations Pressure Air Temp Water Temp Dewpoint Dewpoint Depression Visibility Wind Speed Wind Dir Waves Ship Positions

Edgar B Speer

Owner: Great Lakes Fleet, Inc, DULUTH, MN. More information available from US FCC via Universal Licensing System and Coast Guard Vessel Documentation Center.

Last reported at 2015-Aug-31 15:30 UTC. Time now 2015-Sep-01 01:54 UTC.
Position N 44°11' W 086°43'.

Length 306 m; draft 8.8 m.

Type: Cargo ship. MMSI: 366971330.

Date/timePositionNaut miles runAvg speedWind from/ knotsBaromVisibWave heightAir tempDewpointWater temp
2015-Aug-31 15:30N 44°11' W 086°43'1112.0
2015-Aug-31 14:33N 44°22' W 086°38'1212.2
2015-Aug-31 13:33N 44°34' W 086°34'10 9.9
2015-Aug-31 12:33N 44°43' W 086°30'1211.9
2015-Aug-31 11:32N 44°55' W 086°25'1111.7
2015-Aug-31 10:33N 45°06' W 086°21'1211.6
2015-Aug-31 09:33N 45°17' W 086°16'1211.8
2015-Aug-31 08:33N 45°28' W 086°11'1211.8
2015-Aug-31 07:33N 45°40' W 086°07'1111.5
2015-Aug-31 06:33N 45°46' W 085°53'1111.1
2015-Aug-31 05:33N 45°52' W 085°40'10 9.9
2015-Aug-31 04:33N 45°53' W 085°26'1211.9
2015-Aug-31 03:34N 45°52' W 085°09'1211.9
2015-Aug-31 02:33N 45°50' W 084°52'1010.4
2015-Aug-31 01:33N 45°50' W 084°37'1111.4
2015-Aug-31 00:33N 45°53' W 084°21'1211.6
2015-Aug-30 23:33N 45°54' W 084°04'12 6.1
2015-Aug-30 21:33N 46°06' W 084°01'29 4.5
2015-Aug-30 15:09N 46°30' W 084°25'7 7.3
2015-Aug-30 14:09N 46°30' W 084°36'610.5
2015-Aug-30 13:33N 46°34' W 084°42'1211.8
2015-Aug-30 12:33N 46°44' W 084°52'1712.0
2015-Aug-30 11:09N 46°53' W 085°12'712.0
2015-Aug-30 10:33N 46°56' W 085°22'25711.0
2015-Aug-29 11:19N 47°00' W 091°38'247 8.6
2015-Aug-28 06:34N 46°58' W 085°36'1312.9
2015-Aug-28 05:33N 46°53' W 085°18'1312.9
2015-Aug-28 04:34N 46°48' W 085°01'1514.5
2015-Aug-28 03:33N 46°37' W 084°48'1211.7
2015-Aug-28 02:33N 46°29' W 084°35'32 5.0
2015-Aug-27 20:04N 46°07' W 084°01'13 8.6
2015-Aug-27 18:33N 45°54' W 084°00'1313.2
2015-Aug-27 17:33N 45°51' W 084°19'1010.2
2015-Aug-27 16:33N 45°51' W 084°33'9 9.0
2015-Aug-27 15:33N 45°49' W 084°46'1110.7
2015-Aug-27 14:33N 45°50' W 085°01'7 6.9
2015-Aug-27 13:33N 45°45' W 085°09'1110.7
2015-Aug-27 12:34N 45°37' W 085°18'1111.0
2015-Aug-27 11:33N 45°28' W 085°28'1212.3
2015-Aug-27 10:33N 45°18' W 085°38'1313.1
2015-Aug-27 09:33N 45°08' W 085°49'1312.5
2015-Aug-27 08:33N 44°59' W 086°02'15 0.3
2015-Aug-25 08:33N 45°02' W 086°22'1312.5
2015-Aug-25 07:32N 45°14' W 086°17'1212.5
2015-Aug-25 06:33N 45°26' W 086°13'1212.4
2015-Aug-25 05:33N 45°37' W 086°08'1111.3
2015-Aug-25 04:33N 45°45' W 085°56'1211.8
2015-Aug-25 03:33N 45°51' W 085°41'1111.0
2015-Aug-25 02:33N 45°53' W 085°26'1111.3
2015-Aug-25 01:33N 45°52' W 085°10'1211.6
2015-Aug-25 00:33N 45°50' W 084°53'1110.7
2015-Aug-24 23:33N 45°50' W 084°38'9 9.4
2015-Aug-24 22:33N 45°52' W 084°25'1211.7
2015-Aug-24 21:33N 45°53' W 084°08'1110.5
2015-Aug-24 20:30N 45°58' W 083°54'26 7.6
2015-Aug-24 17:06N 46°20' W 084°13'310 9.8
2015-Aug-23 09:27N 47°01' W 091°40'  
Track history (hours):
 
Tides and Currents Weather Stations Pressure Air Temp Water Temp Dewpoint Dewpoint Depression Visibility Wind Speed Wind Dir Waves Ship Positions

Edgar B Speer

Owner: Great Lakes Fleet, Inc, DULUTH, MN. More information available from US FCC via Universal Licensing System and Coast Guard Vessel Documentation Center.

Last reported at 2015-Aug-31 15:30 UTC. Time now 2015-Sep-01 01:54 UTC.
Position N 44°11' W 086°43'.

Length 306 m; draft 8.8 m.

Type: Cargo ship. MMSI: 366971330.

Date/timePositionNaut miles runAvg speedWind from/ knotsBaromVisibWave heightAir tempDewpointWater temp
2015-Aug-31 15:30N 44°11' W 086°43'1112.0
2015-Aug-31 14:33N 44°22' W 086°38'1212.2
2015-Aug-31 13:33N 44°34' W 086°34'10 9.9
2015-Aug-31 12:33N 44°43' W 086°30'1211.9
2015-Aug-31 11:32N 44°55' W 086°25'1111.7
2015-Aug-31 10:33N 45°06' W 086°21'1211.6
2015-Aug-31 09:33N 45°17' W 086°16'1211.8
2015-Aug-31 08:33N 45°28' W 086°11'1211.8
2015-Aug-31 07:33N 45°40' W 086°07'1111.5
2015-Aug-31 06:33N 45°46' W 085°53'1111.1
2015-Aug-31 05:33N 45°52' W 085°40'10 9.9
2015-Aug-31 04:33N 45°53' W 085°26'1211.9
2015-Aug-31 03:34N 45°52' W 085°09'1211.9
2015-Aug-31 02:33N 45°50' W 084°52'1010.4
2015-Aug-31 01:33N 45°50' W 084°37'1111.4
2015-Aug-31 00:33N 45°53' W 084°21'1211.6
2015-Aug-30 23:33N 45°54' W 084°04'12 6.1
2015-Aug-30 21:33N 46°06' W 084°01'29 4.5
2015-Aug-30 15:09N 46°30' W 084°25'7 7.3
2015-Aug-30 14:09N 46°30' W 084°36'610.5
2015-Aug-30 13:33N 46°34' W 084°42'1211.8
2015-Aug-30 12:33N 46°44' W 084°52'1712.0
2015-Aug-30 11:09N 46°53' W 085°12'712.0
2015-Aug-30 10:33N 46°56' W 085°22'25711.0
2015-Aug-29 11:19N 47°00' W 091°38'247 8.6
2015-Aug-28 06:34N 46°58' W 085°36'1312.9
2015-Aug-28 05:33N 46°53' W 085°18'1312.9
2015-Aug-28 04:34N 46°48' W 085°01'1514.5
2015-Aug-28 03:33N 46°37' W 084°48'1211.7
2015-Aug-28 02:33N 46°29' W 084°35'32 5.0
2015-Aug-27 20:04N 46°07' W 084°01'13 8.6
2015-Aug-27 18:33N 45°54' W 084°00'1313.2
2015-Aug-27 17:33N 45°51' W 084°19'1010.2
2015-Aug-27 16:33N 45°51' W 084°33'9 9.0
2015-Aug-27 15:33N 45°49' W 084°46'1110.7
2015-Aug-27 14:33N 45°50' W 085°01'7 6.9
2015-Aug-27 13:33N 45°45' W 085°09'1110.7
2015-Aug-27 12:34N 45°37' W 085°18'1111.0
2015-Aug-27 11:33N 45°28' W 085°28'1212.3
2015-Aug-27 10:33N 45°18' W 085°38'1313.1
2015-Aug-27 09:33N 45°08' W 085°49'1312.5
2015-Aug-27 08:33N 44°59' W 086°02'15 0.3
2015-Aug-25 08:33N 45°02' W 086°22'1312.5
2015-Aug-25 07:32N 45°14' W 086°17'1212.5
2015-Aug-25 06:33N 45°26' W 086°13'1212.4
2015-Aug-25 05:33N 45°37' W 086°08'1111.3
2015-Aug-25 04:33N 45°45' W 085°56'1211.8
2015-Aug-25 03:33N 45°51' W 085°41'1111.0
2015-Aug-25 02:33N 45°53' W 085°26'1111.3
2015-Aug-25 01:33N 45°52' W 085°10'1211.6
2015-Aug-25 00:33N 45°50' W 084°53'1110.7
2015-Aug-24 23:33N 45°50' W 084°38'9 9.4
2015-Aug-24 22:33N 45°52' W 084°25'1211.7
2015-Aug-24 21:33N 45°53' W 084°08'1110.5
2015-Aug-24 20:30N 45°58' W 083°54'26 7.6
2015-Aug-24 17:06N 46°20' W 084°13'310 9.8
2015-Aug-23 09:27N 47°01' W 091°40'  

Dump ship's entire track history